VCBI/CMB METAR and TAF weather

Enter ICAO airport designator
Station Type Date Time Source
VCBI METAR 2018/12/15 02:10 UTC NOAA

VCBI 150210Z 06003KT 8000 FEW018 25/23 Q1012 NOSIG


Station Type Date Time Source
VCBI Decoded METAR 2018/12/15 02:10 UTC NOAA

Katunayake, Sri Lanka (VCBI) 07-10N 079-53E 8M
Dec 14, 2018 - 09:10 PM EST / 2018.12.15 0210 UTC
Wind: from the ENE (060 degrees) at 3 MPH (3 KT):0
Visibility: 4 mile(s):0
Sky conditions: mostly clear
Temperature: 77 F (25 C)
Dew Point: 73 F (23 C)
Relative Humidity: 88%
Pressure (altimeter): 29.88 in. Hg (1012 hPa)
ob: VCBI 150210Z 06003KT 8000 FEW018 25/23 Q1012 NOSIG
cycle: 2

Station Type Date Time Source
VCBI TAF 2018/12/14 18:06 UTC NOAA

TAF TAF VCBI 141700Z 1418/1524 01008KT 9999 FEW018 TX30/1508Z TN22/1500Z
TEMPO 1423/1502 6000


Example: see airport list